sensor_id;sensor_type;location;lat;lon;timestamp;P1;durP1;ratioP1;P2;durP2;ratioP2
26906;SDS011;14472;56.880;16.658;2023-09-08T00:01:55;2.53;;;1.50;;
26906;SDS011;14472;56.880;16.658;2023-09-08T00:04:21;3.08;;;1.38;;
26906;SDS011;14472;56.880;16.658;2023-09-08T00:06:47;1.88;;;1.40;;
26906;SDS011;14472;56.880;16.658;2023-09-08T00:09:13;3.30;;;1.10;;
26906;SDS011;14472;56.880;16.658;2023-09-08T00:11:38;2.53;;;1.48;;
26906;SDS011;14472;56.880;16.658;2023-09-08T00:14:04;2.47;;;1.50;;
26906;SDS011;14472;56.880;16.658;2023-09-08T00:16:30;2.70;;;1.50;;
26906;SDS011;14472;56.880;16.658;2023-09-08T00:18:56;1.98;;;1.30;;
26906;SDS011;14472;56.880;16.658;2023-09-08T00:21:26;3.80;;;1.20;;
26906;SDS011;14472;56.880;16.658;2023-09-08T00:23:52;2.10;;;1.40;;
26906;SDS011;14472;56.880;16.658;2023-09-08T00:26:18;3.88;;;1.40;;
26906;SDS011;14472;56.880;16.658;2023-09-08T00:28:44;2.58;;;1.52;;
26906;SDS011;14472;56.880;16.658;2023-09-08T00:31:10;1.83;;;1.20;;
26906;SDS011;14472;56.880;16.658;2023-09-08T00:33:35;2.58;;;1.50;;
26906;SDS011;14472;56.880;16.658;2023-09-08T00:36:02;2.38;;;1.33;;
26906;SDS011;14472;56.880;16.658;2023-09-08T00:38:28;1.40;;;1.25;;
26906;SDS011;14472;56.880;16.658;2023-09-08T00:40:54;1.55;;;1.30;;
26906;SDS011;14472;56.880;16.658;2023-09-08T00:43:19;1.65;;;1.42;;
26906;SDS011;14472;56.880;16.658;2023-09-08T00:45:48;1.75;;;1.23;;
26906;SDS011;14472;56.880;16.658;2023-09-08T00:48:14;3.28;;;1.30;;
26906;SDS011;14472;56.880;16.658;2023-09-08T00:50:39;2.20;;;1.33;;
26906;SDS011;14472;56.880;16.658;2023-09-08T00:53:06;3.20;;;1.40;;
26906;SDS011;14472;56.880;16.658;2023-09-08T00:55:32;3.67;;;1.15;;
26906;SDS011;14472;56.880;16.658;2023-09-08T00:57:59;1.30;;;1.10;;
26906;SDS011;14472;56.880;16.658;2023-09-08T01:00:25;1.48;;;1.17;;
26906;SDS011;14472;56.880;16.658;2023-09-08T01:02:51;1.85;;;1.08;;
26906;SDS011;14472;56.880;16.658;2023-09-08T01:05:17;2.40;;;1.40;;
26906;SDS011;14472;56.880;16.658;2023-09-08T01:07:44;1.40;;;1.20;;
26906;SDS011;14472;56.880;16.658;2023-09-08T01:10:11;1.13;;;0.98;;
26906;SDS011;14472;56.880;16.658;2023-09-08T01:12:37;2.08;;;1.30;;
26906;SDS011;14472;56.880;16.658;2023-09-08T01:15:05;1.33;;;0.90;;
26906;SDS011;14472;56.880;16.658;2023-09-08T01:17:31;1.48;;;1.00;;
26906;SDS011;14472;56.880;16.658;2023-09-08T01:19:57;1.90;;;1.10;;
26906;SDS011;14472;56.880;16.658;2023-09-08T01:25:22;2.70;;;0.90;;
26906;SDS011;14472;56.880;16.658;2023-09-08T01:27:55;2.50;;;1.10;;
26906;SDS011;14472;56.880;16.658;2023-09-08T01:30:26;1.15;;;1.00;;
26906;SDS011;14472;56.880;16.658;2023-09-08T01:32:54;3.33;;;0.93;;
26906;SDS011;14472;56.880;16.658;2023-09-08T01:35:21;5.75;;;1.10;;
26906;SDS011;14472;56.880;16.658;2023-09-08T01:37:47;1.58;;;0.77;;
26906;SDS011;14472;56.880;16.658;2023-09-08T01:40:14;1.25;;;0.70;;
26906;SDS011;14472;56.880;16.658;2023-09-08T01:42:40;1.00;;;0.90;;
26906;SDS011;14472;56.880;16.658;2023-09-08T01:45:06;1.25;;;0.90;;
26906;SDS011;14472;56.880;16.658;2023-09-08T01:47:33;1.23;;;1.05;;
26906;SDS011;14472;56.880;16.658;2023-09-08T01:49:59;1.52;;;1.00;;
26906;SDS011;14472;56.880;16.658;2023-09-08T01:52:25;3.28;;;0.95;;
26906;SDS011;14472;56.880;16.658;2023-09-08T01:54:51;1.67;;;1.20;;
26906;SDS011;14472;56.880;16.658;2023-09-08T01:57:17;2.30;;;1.30;;
26906;SDS011;14472;56.880;16.658;2023-09-08T01:59:43;2.38;;;1.33;;
26906;SDS011;14472;56.880;16.658;2023-09-08T02:02:13;3.38;;;1.30;;
26906;SDS011;14472;56.880;16.658;2023-09-08T02:04:39;1.95;;;1.33;;
26906;SDS011;14472;56.880;16.658;2023-09-08T02:07:05;1.90;;;1.70;;
26906;SDS011;14472;56.880;16.658;2023-09-08T02:09:34;3.17;;;2.58;;
26906;SDS011;14472;56.880;16.658;2023-09-08T02:12:02;4.90;;;2.42;;
26906;SDS011;14472;56.880;16.658;2023-09-08T02:14:28;3.67;;;2.40;;
26906;SDS011;14472;56.880;16.658;2023-09-08T02:16:54;3.40;;;2.17;;
26906;SDS011;14472;56.880;16.658;2023-09-08T02:19:20;2.40;;;2.20;;
26906;SDS011;14472;56.880;16.658;2023-09-08T02:21:46;2.97;;;2.22;;
26906;SDS011;14472;56.880;16.658;2023-09-08T02:24:11;2.50;;;2.10;;
26906;SDS011;14472;56.880;16.658;2023-09-08T02:26:41;2.47;;;2.08;;
26906;SDS011;14472;56.880;16.658;2023-09-08T02:29:06;3.03;;;1.88;;
26906;SDS011;14472;56.880;16.658;2023-09-08T02:31:32;2.30;;;1.92;;
26906;SDS011;14472;56.880;16.658;2023-09-08T02:33:59;4.57;;;1.98;;
26906;SDS011;14472;56.880;16.658;2023-09-08T02:36:24;3.65;;;1.70;;
26906;SDS011;14472;56.880;16.658;2023-09-08T02:38:51;4.13;;;2.00;;
26906;SDS011;14472;56.880;16.658;2023-09-08T02:41:18;4.13;;;3.03;;
26906;SDS011;14472;56.880;16.658;2023-09-08T02:43:44;4.78;;;3.30;;
26906;SDS011;14472;56.880;16.658;2023-09-08T02:46:10;5.32;;;2.97;;
26906;SDS011;14472;56.880;16.658;2023-09-08T02:48:35;9.82;;;3.00;;
26906;SDS011;14472;56.880;16.658;2023-09-08T02:51:01;10.13;;;2.60;;
26906;SDS011;14472;56.880;16.658;2023-09-08T02:53:27;11.18;;;2.70;;
26906;SDS011;14472;56.880;16.658;2023-09-08T02:55:57;6.95;;;2.50;;
26906;SDS011;14472;56.880;16.658;2023-09-08T02:58:23;3.75;;;2.40;;
26906;SDS011;14472;56.880;16.658;2023-09-08T03:00:49;2.75;;;1.98;;
26906;SDS011;14472;56.880;16.658;2023-09-08T03:03:17;3.97;;;2.20;;
26906;SDS011;14472;56.880;16.658;2023-09-08T03:05:43;3.47;;;2.28;;
26906;SDS011;14472;56.880;16.658;2023-09-08T03:08:09;3.25;;;2.20;;
26906;SDS011;14472;56.880;16.658;2023-09-08T03:10:34;2.05;;;1.80;;
26906;SDS011;14472;56.880;16.658;2023-09-08T03:13:01;2.30;;;1.98;;
26906;SDS011;14472;56.880;16.658;2023-09-08T03:15:26;1.67;;;1.58;;
26906;SDS011;14472;56.880;16.658;2023-09-08T03:17:56;1.50;;;1.40;;
26906;SDS011;14472;56.880;16.658;2023-09-08T03:20:26;1.55;;;1.45;;
26906;SDS011;14472;56.880;16.658;2023-09-08T03:22:53;1.52;;;1.40;;
26906;SDS011;14472;56.880;16.658;2023-09-08T03:25:19;1.50;;;1.40;;
26906;SDS011;14472;56.880;16.658;2023-09-08T03:27:45;1.75;;;1.65;;
26906;SDS011;14472;56.880;16.658;2023-09-08T03:30:11;2.38;;;1.98;;
26906;SDS011;14472;56.880;16.658;2023-09-08T03:32:37;2.10;;;2.00;;
26906;SDS011;14472;56.880;16.658;2023-09-08T03:35:03;1.92;;;1.80;;
26906;SDS011;14472;56.880;16.658;2023-09-08T03:37:32;1.90;;;1.77;;
26906;SDS011;14472;56.880;16.658;2023-09-08T03:39:59;2.38;;;2.17;;
26906;SDS011;14472;56.880;16.658;2023-09-08T03:42:25;3.65;;;2.22;;
26906;SDS011;14472;56.880;16.658;2023-09-08T03:44:51;2.60;;;2.40;;
26906;SDS011;14472;56.880;16.658;2023-09-08T03:47:16;2.42;;;2.22;;
26906;SDS011;14472;56.880;16.658;2023-09-08T03:49:42;2.75;;;2.28;;
26906;SDS011;14472;56.880;16.658;2023-09-08T03:52:08;2.80;;;2.60;;
26906;SDS011;14472;56.880;16.658;2023-09-08T03:54:33;4.60;;;2.10;;
26906;SDS011;14472;56.880;16.658;2023-09-08T03:56:59;2.53;;;2.33;;
26906;SDS011;14472;56.880;16.658;2023-09-08T03:59:25;2.53;;;2.30;;
26906;SDS011;14472;56.880;16.658;2023-09-08T04:01:50;3.25;;;2.17;;
26906;SDS011;14472;56.880;16.658;2023-09-08T04:04:16;2.50;;;2.30;;
26906;SDS011;14472;56.880;16.658;2023-09-08T04:06:45;3.20;;;1.98;;
26906;SDS011;14472;56.880;16.658;2023-09-08T04:09:10;3.42;;;2.08;;
26906;SDS011;14472;56.880;16.658;2023-09-08T04:11:36;4.63;;;2.28;;
26906;SDS011;14472;56.880;16.658;2023-09-08T04:14:01;2.90;;;2.08;;
26906;SDS011;14472;56.880;16.658;2023-09-08T04:16:28;3.33;;;2.33;;
26906;SDS011;14472;56.880;16.658;2023-09-08T04:18:53;2.97;;;2.38;;
26906;SDS011;14472;56.880;16.658;2023-09-08T04:21:19;6.72;;;2.30;;
26906;SDS011;14472;56.880;16.658;2023-09-08T04:23:45;5.25;;;2.60;;
26906;SDS011;14472;56.880;16.658;2023-09-08T04:26:11;5.88;;;2.70;;
26906;SDS011;14472;56.880;16.658;2023-09-08T04:28:38;9.90;;;2.67;;
26906;SDS011;14472;56.880;16.658;2023-09-08T04:31:03;6.78;;;2.08;;
26906;SDS011;14472;56.880;16.658;2023-09-08T04:33:29;2.70;;;2.25;;
26906;SDS011;14472;56.880;16.658;2023-09-08T04:35:55;3.97;;;2.13;;
26906;SDS011;14472;56.880;16.658;2023-09-08T04:38:21;12.00;;;2.10;;
26906;SDS011;14472;56.880;16.658;2023-09-08T04:40:47;8.48;;;2.38;;
26906;SDS011;14472;56.880;16.658;2023-09-08T04:43:13;5.35;;;2.00;;
26906;SDS011;14472;56.880;16.658;2023-09-08T04:45:38;10.15;;;1.73;;
26906;SDS011;14472;56.880;16.658;2023-09-08T04:48:04;20.50;;;2.28;;
26906;SDS011;14472;56.880;16.658;2023-09-08T04:50:30;12.68;;;1.90;;
26906;SDS011;14472;56.880;16.658;2023-09-08T04:52:56;9.27;;;1.75;;
26906;SDS011;14472;56.880;16.658;2023-09-08T04:55:23;15.00;;;1.92;;
26906;SDS011;14472;56.880;16.658;2023-09-08T04:57:48;4.47;;;2.42;;
26906;SDS011;14472;56.880;16.658;2023-09-08T05:00:14;19.30;;;2.42;;
26906;SDS011;14472;56.880;16.658;2023-09-08T05:02:40;11.10;;;2.00;;
26906;SDS011;14472;56.880;16.658;2023-09-08T05:05:06;4.15;;;2.13;;
26906;SDS011;14472;56.880;16.658;2023-09-08T05:07:32;7.38;;;2.05;;
26906;SDS011;14472;56.880;16.658;2023-09-08T05:09:58;7.95;;;1.80;;
26906;SDS011;14472;56.880;16.658;2023-09-08T05:12:24;8.00;;;1.63;;
26906;SDS011;14472;56.880;16.658;2023-09-08T05:14:49;5.55;;;1.23;;
26906;SDS011;14472;56.880;16.658;2023-09-08T05:17:20;1.55;;;1.30;;
26906;SDS011;14472;56.880;16.658;2023-09-08T05:19:46;2.92;;;1.55;;
26906;SDS011;14472;56.880;16.658;2023-09-08T05:22:12;3.25;;;1.40;;
26906;SDS011;14472;56.880;16.658;2023-09-08T05:24:38;1.38;;;1.27;;
26906;SDS011;14472;56.880;16.658;2023-09-08T05:27:04;1.42;;;1.30;;
26906;SDS011;14472;56.880;16.658;2023-09-08T05:29:29;1.50;;;1.40;;
26906;SDS011;14472;56.880;16.658;2023-09-08T05:31:55;3.15;;;1.52;;
26906;SDS011;14472;56.880;16.658;2023-09-08T05:34:21;1.45;;;1.35;;
26906;SDS011;14472;56.880;16.658;2023-09-08T05:36:47;2.08;;;1.50;;
26906;SDS011;14472;56.880;16.658;2023-09-08T05:39:14;1.90;;;1.40;;
26906;SDS011;14472;56.880;16.658;2023-09-08T05:41:40;4.53;;;1.90;;
26906;SDS011;14472;56.880;16.658;2023-09-08T05:44:05;1.70;;;1.60;;
26906;SDS011;14472;56.880;16.658;2023-09-08T05:46:31;7.07;;;1.55;;
26906;SDS011;14472;56.880;16.658;2023-09-08T05:48:57;2.83;;;1.23;;
26906;SDS011;14472;56.880;16.658;2023-09-08T05:51:23;3.55;;;1.48;;
26906;SDS011;14472;56.880;16.658;2023-09-08T05:53:49;16.48;;;1.70;;
26906;SDS011;14472;56.880;16.658;2023-09-08T05:56:14;7.35;;;1.55;;
26906;SDS011;14472;56.880;16.658;2023-09-08T05:58:40;44.78;;;2.15;;
26906;SDS011;14472;56.880;16.658;2023-09-08T06:01:06;29.42;;;2.50;;
26906;SDS011;14472;56.880;16.658;2023-09-08T06:03:32;3.70;;;0.90;;
26906;SDS011;14472;56.880;16.658;2023-09-08T06:05:58;4.88;;;1.10;;
26906;SDS011;14472;56.880;16.658;2023-09-08T06:08:23;11.02;;;1.20;;
26906;SDS011;14472;56.880;16.658;2023-09-08T06:10:49;28.45;;;1.90;;
26906;SDS011;14472;56.880;16.658;2023-09-08T06:13:15;31.60;;;2.03;;
26906;SDS011;14472;56.880;16.658;2023-09-08T06:15:41;18.10;;;1.83;;
26906;SDS011;14472;56.880;16.658;2023-09-08T06:18:06;28.00;;;2.05;;
26906;SDS011;14472;56.880;16.658;2023-09-08T06:20:33;4.65;;;1.67;;
26906;SDS011;14472;56.880;16.658;2023-09-08T06:22:59;2.00;;;1.70;;
26906;SDS011;14472;56.880;16.658;2023-09-08T06:25:24;24.23;;;2.10;;
26906;SDS011;14472;56.880;16.658;2023-09-08T06:27:53;2.03;;;1.50;;
26906;SDS011;14472;56.880;16.658;2023-09-08T06:30:19;4.97;;;1.60;;
26906;SDS011;14472;56.880;16.658;2023-09-08T06:32:45;57.47;;;3.88;;
26906;SDS011;14472;56.880;16.658;2023-09-08T06:35:10;39.67;;;3.03;;
26906;SDS011;14472;56.880;16.658;2023-09-08T06:37:36;38.05;;;2.40;;
26906;SDS011;14472;56.880;16.658;2023-09-08T06:40:04;25.88;;;2.15;;
26906;SDS011;14472;56.880;16.658;2023-09-08T06:42:30;24.77;;;2.10;;
26906;SDS011;14472;56.880;16.658;2023-09-08T06:44:57;17.25;;;2.10;;
26906;SDS011;14472;56.880;16.658;2023-09-08T06:47:24;7.82;;;1.70;;
26906;SDS011;14472;56.880;16.658;2023-09-08T06:49:49;46.72;;;2.20;;
26906;SDS011;14472;56.880;16.658;2023-09-08T06:52:16;44.63;;;2.83;;
26906;SDS011;14472;56.880;16.658;2023-09-08T06:54:42;76.25;;;3.33;;
26906;SDS011;14472;56.880;16.658;2023-09-08T06:57:10;3.50;;;1.73;;
26906;SDS011;14472;56.880;16.658;2023-09-08T06:59:36;36.85;;;2.67;;
26906;SDS011;14472;56.880;16.658;2023-09-08T07:02:02;7.72;;;1.75;;
26906;SDS011;14472;56.880;16.658;2023-09-08T07:04:27;2.05;;;1.85;;
26906;SDS011;14472;56.880;16.658;2023-09-08T07:06:53;2.10;;;1.90;;
26906;SDS011;14472;56.880;16.658;2023-09-08T07:09:20;4.25;;;1.88;;
26906;SDS011;14472;56.880;16.658;2023-09-08T07:11:45;5.28;;;2.10;;
26906;SDS011;14472;56.880;16.658;2023-09-08T07:14:11;7.95;;;2.30;;
26906;SDS011;14472;56.880;16.658;2023-09-08T07:16:37;8.32;;;2.40;;
26906;SDS011;14472;56.880;16.658;2023-09-08T07:19:03;12.18;;;2.20;;
26906;SDS011;14472;56.880;16.658;2023-09-08T07:21:29;2.17;;;1.98;;
26906;SDS011;14472;56.880;16.658;2023-09-08T07:23:54;3.85;;;2.10;;
26906;SDS011;14472;56.880;16.658;2023-09-08T07:26:20;11.70;;;2.20;;
26906;SDS011;14472;56.880;16.658;2023-09-08T07:28:46;11.40;;;2.17;;
26906;SDS011;14472;56.880;16.658;2023-09-08T07:31:11;10.05;;;2.40;;
26906;SDS011;14472;56.880;16.658;2023-09-08T07:33:37;7.22;;;2.45;;
26906;SDS011;14472;56.880;16.658;2023-09-08T07:36:04;24.90;;;2.58;;
26906;SDS011;14472;56.880;16.658;2023-09-08T07:38:30;13.20;;;2.50;;
26906;SDS011;14472;56.880;16.658;2023-09-08T07:40:56;5.47;;;2.38;;
26906;SDS011;14472;56.880;16.658;2023-09-08T07:43:24;2.67;;;2.35;;
26906;SDS011;14472;56.880;16.658;2023-09-08T07:45:50;2.90;;;2.28;;
26906;SDS011;14472;56.880;16.658;2023-09-08T07:48:16;2.75;;;2.30;;
26906;SDS011;14472;56.880;16.658;2023-09-08T07:50:42;7.25;;;2.03;;
26906;SDS011;14472;56.880;16.658;2023-09-08T07:53:08;3.53;;;2.00;;
26906;SDS011;14472;56.880;16.658;2023-09-08T07:55:33;2.42;;;1.92;;
26906;SDS011;14472;56.880;16.658;2023-09-08T07:58:00;2.13;;;1.92;;
26906;SDS011;14472;56.880;16.658;2023-09-08T08:00:27;3.47;;;2.15;;
26906;SDS011;14472;56.880;16.658;2023-09-08T08:02:53;2.50;;;2.05;;
26906;SDS011;14472;56.880;16.658;2023-09-08T08:05:20;2.58;;;1.80;;
26906;SDS011;14472;56.880;16.658;2023-09-08T08:07:46;2.33;;;1.65;;
26906;SDS011;14472;56.880;16.658;2023-09-08T08:10:13;2.00;;;1.42;;
26906;SDS011;14472;56.880;16.658;2023-09-08T08:12:40;1.40;;;1.10;;
26906;SDS011;14472;56.880;16.658;2023-09-08T08:15:06;1.60;;;1.50;;
26906;SDS011;14472;56.880;16.658;2023-09-08T08:17:35;3.08;;;1.38;;
26906;SDS011;14472;56.880;16.658;2023-09-08T08:20:02;1.40;;;1.30;;
26906;SDS011;14472;56.880;16.658;2023-09-08T08:22:32;1.42;;;1.33;;
26906;SDS011;14472;56.880;16.658;2023-09-08T08:24:58;1.30;;;1.20;;
26906;SDS011;14472;56.880;16.658;2023-09-08T08:27:24;1.35;;;1.25;;
26906;SDS011;14472;56.880;16.658;2023-09-08T08:29:50;2.03;;;1.30;;
26906;SDS011;14472;56.880;16.658;2023-09-08T08:32:16;1.60;;;1.10;;
26906;SDS011;14472;56.880;16.658;2023-09-08T08:34:42;1.30;;;1.20;;
26906;SDS011;14472;56.880;16.658;2023-09-08T08:37:10;1.20;;;1.10;;
26906;SDS011;14472;56.880;16.658;2023-09-08T08:39:36;1.30;;;1.20;;
26906;SDS011;14472;56.880;16.658;2023-09-08T08:42:08;1.55;;;1.08;;
26906;SDS011;14472;56.880;16.658;2023-09-08T08:44:35;1.20;;;1.10;;
26906;SDS011;14472;56.880;16.658;2023-09-08T08:47:09;1.10;;;1.00;;
26906;SDS011;14472;56.880;16.658;2023-09-08T08:49:35;1.20;;;1.10;;
26906;SDS011;14472;56.880;16.658;2023-09-08T08:52:02;1.25;;;1.15;;
26906;SDS011;14472;56.880;16.658;2023-09-08T08:54:36;1.60;;;1.02;;
26906;SDS011;14472;56.880;16.658;2023-09-08T08:57:04;2.38;;;1.10;;
26906;SDS011;14472;56.880;16.658;2023-09-08T08:59:30;1.48;;;1.17;;
26906;SDS011;14472;56.880;16.658;2023-09-08T09:01:57;2.83;;;1.30;;
26906;SDS011;14472;56.880;16.658;2023-09-08T09:04:24;1.27;;;0.80;;
26906;SDS011;14472;56.880;16.658;2023-09-08T09:06:51;0.98;;;0.98;;
26906;SDS011;14472;56.880;16.658;2023-09-08T09:09:18;0.90;;;0.88;;
26906;SDS011;14472;56.880;16.658;2023-09-08T09:11:45;1.08;;;0.95;;
26906;SDS011;14472;56.880;16.658;2023-09-08T09:14:11;1.20;;;0.80;;
26906;SDS011;14472;56.880;16.658;2023-09-08T09:16:43;3.08;;;0.70;;
26906;SDS011;14472;56.880;16.658;2023-09-08T09:19:10;1.90;;;0.90;;
26906;SDS011;14472;56.880;16.658;2023-09-08T09:21:56;3.70;;;0.90;;
26906;SDS011;14472;56.880;16.658;2023-09-08T09:24:30;2.55;;;1.02;;
26906;SDS011;14472;56.880;16.658;2023-09-08T09:26:59;2.60;;;0.80;;
26906;SDS011;14472;56.880;16.658;2023-09-08T09:29:26;0.77;;;0.77;;
26906;SDS011;14472;56.880;16.658;2023-09-08T09:34:20;1.15;;;0.90;;
26906;SDS011;14472;56.880;16.658;2023-09-08T09:36:50;2.13;;;1.10;;
26906;SDS011;14472;56.880;16.658;2023-09-08T09:39:20;1.25;;;0.77;;
26906;SDS011;14472;56.880;16.658;2023-09-08T09:41:47;0.90;;;0.73;;
26906;SDS011;14472;56.880;16.658;2023-09-08T09:44:13;2.25;;;0.80;;
26906;SDS011;14472;56.880;16.658;2023-09-08T09:46:44;2.58;;;0.90;;
26906;SDS011;14472;56.880;16.658;2023-09-08T09:49:11;1.50;;;0.90;;
26906;SDS011;14472;56.880;16.658;2023-09-08T09:51:45;1.48;;;0.80;;
26906;SDS011;14472;56.880;16.658;2023-09-08T09:54:16;0.98;;;0.70;;
26906;SDS011;14472;56.880;16.658;2023-09-08T09:56:42;1.70;;;0.90;;
26906;SDS011;14472;56.880;16.658;2023-09-08T09:59:09;1.92;;;1.00;;
26906;SDS011;14472;56.880;16.658;2023-09-08T10:01:39;1.42;;;1.00;;
26906;SDS011;14472;56.880;16.658;2023-09-08T10:04:06;1.38;;;0.90;;
26906;SDS011;14472;56.880;16.658;2023-09-08T10:06:33;0.82;;;0.80;;
26906;SDS011;14472;56.880;16.658;2023-09-08T10:09:00;1.35;;;0.90;;
26906;SDS011;14472;56.880;16.658;2023-09-08T10:11:29;3.63;;;1.20;;
26906;SDS011;14472;56.880;16.658;2023-09-08T10:14:19;1.13;;;0.80;;
26906;SDS011;14472;56.880;16.658;2023-09-08T10:16:48;1.25;;;0.80;;
26906;SDS011;14472;56.880;16.658;2023-09-08T10:19:17;1.77;;;0.90;;
26906;SDS011;14472;56.880;16.658;2023-09-08T10:21:47;1.27;;;1.10;;
26906;SDS011;14472;56.880;16.658;2023-09-08T10:24:26;1.35;;;0.80;;
26906;SDS011;14472;56.880;16.658;2023-09-08T10:26:58;1.15;;;0.73;;
26906;SDS011;14472;56.880;16.658;2023-09-08T10:29:36;1.20;;;0.73;;
26906;SDS011;14472;56.880;16.658;2023-09-08T10:32:02;2.33;;;0.90;;
26906;SDS011;14472;56.880;16.658;2023-09-08T10:34:30;2.17;;;0.90;;
26906;SDS011;14472;56.880;16.658;2023-09-08T10:36:57;3.45;;;1.17;;
26906;SDS011;14472;56.880;16.658;2023-09-08T10:39:36;2.33;;;1.25;;
26906;SDS011;14472;56.880;16.658;2023-09-08T10:44:57;1.95;;;1.20;;
26906;SDS011;14472;56.880;16.658;2023-09-08T10:47:33;3.65;;;1.35;;
26906;SDS011;14472;56.880;16.658;2023-09-08T10:50:18;2.53;;;1.50;;
26906;SDS011;14472;56.880;16.658;2023-09-08T10:52:44;1.52;;;1.17;;
26906;SDS011;14472;56.880;16.658;2023-09-08T10:55:34;1.80;;;1.48;;
26906;SDS011;14472;56.880;16.658;2023-09-08T10:58:01;2.67;;;2.08;;
26906;SDS011;14472;56.880;16.658;2023-09-08T11:00:29;2.85;;;1.98;;
26906;SDS011;14472;56.880;16.658;2023-09-08T11:03:08;2.53;;;2.17;;
26906;SDS011;14472;56.880;16.658;2023-09-08T11:05:34;4.05;;;2.28;;
26906;SDS011;14472;56.880;16.658;2023-09-08T11:08:00;4.70;;;2.28;;
26906;SDS011;14472;56.880;16.658;2023-09-08T11:10:26;2.45;;;2.25;;
26906;SDS011;14472;56.880;16.658;2023-09-08T11:12:54;3.92;;;2.33;;
26906;SDS011;14472;56.880;16.658;2023-09-08T11:15:20;2.40;;;2.20;;
26906;SDS011;14472;56.880;16.658;2023-09-08T11:17:45;3.55;;;2.10;;
26906;SDS011;14472;56.880;16.658;2023-09-08T11:20:15;3.00;;;2.22;;
26906;SDS011;14472;56.880;16.658;2023-09-08T11:22:50;4.10;;;2.13;;
26906;SDS011;14472;56.880;16.658;2023-09-08T11:25:16;3.65;;;2.38;;
26906;SDS011;14472;56.880;16.658;2023-09-08T11:27:42;2.30;;;2.10;;
26906;SDS011;14472;56.880;16.658;2023-09-08T11:30:09;2.50;;;2.05;;
26906;SDS011;14472;56.880;16.658;2023-09-08T11:32:37;2.25;;;2.03;;
26906;SDS011;14472;56.880;16.658;2023-09-08T11:35:07;2.42;;;2.17;;
26906;SDS011;14472;56.880;16.658;2023-09-08T11:37:38;3.22;;;2.22;;
26906;SDS011;14472;56.880;16.658;2023-09-08T11:40:05;2.42;;;2.22;;
26906;SDS011;14472;56.880;16.658;2023-09-08T11:42:42;2.30;;;2.10;;
26906;SDS011;14472;56.880;16.658;2023-09-08T11:45:14;2.45;;;2.10;;
26906;SDS011;14472;56.880;16.658;2023-09-08T11:47:43;3.17;;;2.45;;
26906;SDS011;14472;56.880;16.658;2023-09-08T11:50:11;4.85;;;2.53;;
26906;SDS011;14472;56.880;16.658;2023-09-08T11:52:42;3.72;;;2.35;;
26906;SDS011;14472;56.880;16.658;2023-09-08T11:55:12;2.33;;;2.00;;
26906;SDS011;14472;56.880;16.658;2023-09-08T11:57:39;4.13;;;2.30;;
26906;SDS011;14472;56.880;16.658;2023-09-08T12:00:06;5.15;;;2.20;;
26906;SDS011;14472;56.880;16.658;2023-09-08T12:02:36;2.65;;;2.00;;
26906;SDS011;14472;56.880;16.658;2023-09-08T12:05:03;5.88;;;2.40;;
26906;SDS011;14472;56.880;16.658;2023-09-08T12:07:29;4.90;;;2.20;;
26906;SDS011;14472;56.880;16.658;2023-09-08T12:09:54;2.88;;;2.42;;
26906;SDS011;14472;56.880;16.658;2023-09-08T12:12:20;3.42;;;2.20;;
26906;SDS011;14472;56.880;16.658;2023-09-08T12:14:46;2.22;;;2.03;;
26906;SDS011;14472;56.880;16.658;2023-09-08T12:17:12;3.30;;;2.20;;
26906;SDS011;14472;56.880;16.658;2023-09-08T12:19:42;2.30;;;2.10;;
26906;SDS011;14472;56.880;16.658;2023-09-08T12:22:07;2.45;;;2.20;;
26906;SDS011;14472;56.880;16.658;2023-09-08T12:27:22;3.20;;;2.38;;
26906;SDS011;14472;56.880;16.658;2023-09-08T12:29:52;3.58;;;2.03;;
26906;SDS011;14472;56.880;16.658;2023-09-08T12:32:17;3.13;;;2.10;;
26906;SDS011;14472;56.880;16.658;2023-09-08T12:34:43;2.35;;;1.90;;
26906;SDS011;14472;56.880;16.658;2023-09-08T12:37:10;2.70;;;1.73;;
26906;SDS011;14472;56.880;16.658;2023-09-08T12:39:37;5.22;;;1.70;;
26906;SDS011;14472;56.880;16.658;2023-09-08T12:42:04;2.20;;;1.85;;
26906;SDS011;14472;56.880;16.658;2023-09-08T12:44:30;1.80;;;1.70;;
26906;SDS011;14472;56.880;16.658;2023-09-08T12:46:55;1.60;;;1.50;;
26906;SDS011;14472;56.880;16.658;2023-09-08T12:49:21;2.22;;;1.45;;
26906;SDS011;14472;56.880;16.658;2023-09-08T12:51:47;1.85;;;1.30;;
26906;SDS011;14472;56.880;16.658;2023-09-08T12:54:13;2.55;;;1.45;;
26906;SDS011;14472;56.880;16.658;2023-09-08T12:56:38;1.63;;;1.40;;
26906;SDS011;14472;56.880;16.658;2023-09-08T12:59:04;1.92;;;1.60;;
26906;SDS011;14472;56.880;16.658;2023-09-08T13:01:30;1.50;;;1.40;;
26906;SDS011;14472;56.880;16.658;2023-09-08T13:03:55;1.60;;;1.40;;
26906;SDS011;14472;56.880;16.658;2023-09-08T13:06:21;1.70;;;1.50;;
26906;SDS011;14472;56.880;16.658;2023-09-08T13:08:47;2.63;;;1.50;;
26906;SDS011;14472;56.880;16.658;2023-09-08T13:11:12;2.85;;;1.50;;
26906;SDS011;14472;56.880;16.658;2023-09-08T13:13:38;2.42;;;1.60;;
26906;SDS011;14472;56.880;16.658;2023-09-08T13:16:03;2.08;;;1.70;;
26906;SDS011;14472;56.880;16.658;2023-09-08T13:18:29;2.03;;;1.80;;
26906;SDS011;14472;56.880;16.658;2023-09-08T13:21:00;1.73;;;1.35;;
26906;SDS011;14472;56.880;16.658;2023-09-08T13:23:26;1.20;;;1.10;;
26906;SDS011;14472;56.880;16.658;2023-09-08T13:25:52;1.60;;;1.50;;
26906;SDS011;14472;56.880;16.658;2023-09-08T13:28:18;1.65;;;1.20;;
26906;SDS011;14472;56.880;16.658;2023-09-08T13:30:43;1.50;;;1.40;;
26906;SDS011;14472;56.880;16.658;2023-09-08T13:33:09;1.42;;;1.33;;
26906;SDS011;14472;56.880;16.658;2023-09-08T13:35:35;1.50;;;1.40;;
26906;SDS011;14472;56.880;16.658;2023-09-08T13:38:00;1.30;;;1.20;;
26906;SDS011;14472;56.880;16.658;2023-09-08T13:40:28;1.45;;;1.23;;
26906;SDS011;14472;56.880;16.658;2023-09-08T13:42:54;1.50;;;1.35;;
26906;SDS011;14472;56.880;16.658;2023-09-08T13:45:19;2.00;;;1.80;;
26906;SDS011;14472;56.880;16.658;2023-09-08T13:47:45;1.30;;;1.20;;
26906;SDS011;14472;56.880;16.658;2023-09-08T13:50:11;2.15;;;1.20;;
26906;SDS011;14472;56.880;16.658;2023-09-08T13:52:37;2.33;;;1.40;;
26906;SDS011;14472;56.880;16.658;2023-09-08T13:55:05;1.50;;;1.20;;
26906;SDS011;14472;56.880;16.658;2023-09-08T13:57:31;1.42;;;1.20;;
26906;SDS011;14472;56.880;16.658;2023-09-08T13:59:56;2.80;;;1.20;;
26906;SDS011;14472;56.880;16.658;2023-09-08T14:02:22;1.38;;;1.27;;
26906;SDS011;14472;56.880;16.658;2023-09-08T14:04:48;1.42;;;1.30;;
26906;SDS011;14472;56.880;16.658;2023-09-08T14:07:14;2.80;;;1.33;;
26906;SDS011;14472;56.880;16.658;2023-09-08T14:09:40;2.03;;;1.40;;
26906;SDS011;14472;56.880;16.658;2023-09-08T14:12:05;2.40;;;1.70;;
26906;SDS011;14472;56.880;16.658;2023-09-08T14:14:31;2.88;;;1.50;;
26906;SDS011;14472;56.880;16.658;2023-09-08T14:16:57;1.90;;;1.30;;
26906;SDS011;14472;56.880;16.658;2023-09-08T14:19:23;3.55;;;1.90;;
26906;SDS011;14472;56.880;16.658;2023-09-08T14:21:48;2.05;;;1.60;;
26906;SDS011;14472;56.880;16.658;2023-09-08T14:24:14;1.73;;;1.63;;
26906;SDS011;14472;56.880;16.658;2023-09-08T14:26:40;2.20;;;1.25;;
26906;SDS011;14472;56.880;16.658;2023-09-08T14:29:05;1.83;;;1.30;;
26906;SDS011;14472;56.880;16.658;2023-09-08T14:31:31;1.50;;;1.40;;
26906;SDS011;14472;56.880;16.658;2023-09-08T14:33:57;1.70;;;1.60;;
26906;SDS011;14472;56.880;16.658;2023-09-08T14:36:23;1.65;;;1.52;;
26906;SDS011;14472;56.880;16.658;2023-09-08T14:38:49;1.35;;;1.25;;
26906;SDS011;14472;56.880;16.658;2023-09-08T14:41:15;1.55;;;1.45;;
26906;SDS011;14472;56.880;16.658;2023-09-08T14:43:41;1.45;;;1.33;;